メインページ
METAR-TAF:

METAR-TAF

空港 :

ストックホルム・アーランダ空港

ストックホルム・アーランダ, スウェーデン

緯度: 59-39N, 経度: 017-57E, 海抜: 38m

現時点の気象観測

当レポートは47分前の14:20(UTC)に作成
西の風 5kt
気温 -1°C
湿度 93%
気圧 1024 hPa
視程10km以上
高度1300ftの千切れ雲あり

METAR: ESSA 181420Z 27005KT 9999 BKN013 M01/M02 Q1024 R01L/29//59 R08/29//62 R01R/510164 TEMPO BKN020

時間: 16:07 (15:07 UTC)

予報

当レポートは3時間37分前の11:30(UTC)に作成
予報は18日の 12時(UTC)から 19日の 12時(UTC)まで有効
の風 6kt
視程: 8000m
高度2000ftの千切れ雲あり
小雪
18日の 12時(UTC)から 18日の 20時(UTC)まで一時的に
視程: 4000m
高度800ftの千切れ雲あり
18日の 20時(UTC)から 19日の 08時(UTC)まで一時的に
視程: 1200m
高度500ftの千切れ雲あり

TAF: ESSA 181130Z 1812/1912 18006KT 8000 -SN BKN020 TEMPO 1812/1820 4000 BKN008 TEMPO 1820/1908 1200 BR BKN005

4,000以上の空港の気象観測と天気予報(METAR報とTAF報)

利用可能な観測所は地図上に黄色い丸と赤い丸で示す。

丸の上にカーソルを重ねると観測所名を参照できる。

次にクリックすると気象観測と天気予報を参照できる。

マップの切り替え:黒色「×」印の緑ボタンをクリックして拡大、「-」印の緑ボタンをクリックして縮小、緑色の三角印をクリックして隣りの地図に切り替え


METAR-TAF: